Aérodrome :
LOGIN :

S'inscrire | Disclaimer

   EN    FR    IT 

 










Légende :    VFR   VFR Marginal   IFR   IFR Intensif   IFR Très Intensif
Visi : 
Plafond : 
>= 8 km
>= 3000ft
5 à 8 km
1000 à 3000 ft
1500m à 5 km
500 à 1000 ft
800 à 1500m
200 à 500 ft
< 800m
< 200 ft
Symboles :   Orages  Brouillard  Fortes neiges  Fortes précipitations  Vent > 20 kt
SIGMETs :   Divers  Orages  Givrage  Turbulence  Onde Orograph.  Cendres Volcan.







- Altitude de l'aérodrome : 200 ft


EBBL - Klein Brogel AB

DERNIER METAR :
  • 231425Z AUTO VRB02KT 7000 FEW018/// OVC036/// 11/07 Q1031 WHT

METARs EXPIRÉS :
  • 231355Z AUTO VRB02KT 7000 SCT017/// OVC035/// 11/07 Q1031 WHT
  • 231325Z AUTO VRB02KT 6000 BKN016/// OVC035/// 11/07 Q1031 WHT
  • 231255Z AUTO VRB01KT 6000 BKN016/// OVC034/// 11/07 Q1031 WHT
  • 231225Z AUTO VRB02KT 6000 OVC015/// 11/07 Q1031 WHT
  • 231155Z AUTO VRB02KT 6000 BKN015/// OVC033/// 11/07 Q1031 WHT

TAF TAF EBBL
Valide du 23 à 13h jusqu'au 23 à 22h UTC


231141Z 2313/2322 30003KT 6000 SCT015 BKN020
PROB30
TEMPO 2315/2319 -DZ BKN015
BECMG 2320/2322 02005KT 5000 BR SCT008 BKN015
Pas de NOTAMs connus pour ce terrain.



MET'MAP, la Météo Aéronautique d'un coup d'oeil ! - Copyright ORBIFLY Décembre 2007 - Disclaimer

ORBIFLY MET'MAP TEAM :

Programmation & Développement : Alexandra Zaïnal
Conception & Développement : Baudouin d'Aumeries
Co-Programmation & Développement : Marc-Olivier Méhu
Soutien technique & logistique : Manuel Goepfert

Contact : metmap@orbifly.com




SOURCES & CREDITS :

   NOAA